createdAt,value
2023-03-28T00:01:37.618Z,100.00
2023-03-28T00:04:07.443Z,100.00
2023-03-28T00:06:38.533Z,100.00
2023-03-28T00:09:08.325Z,100.00
2023-03-28T00:11:37.916Z,100.00
2023-03-28T00:14:08.499Z,100.00
2023-03-28T00:16:41.917Z,100.00
2023-03-28T00:19:13.551Z,100.00
2023-03-28T00:21:47.180Z,100.00
2023-03-28T00:24:18.922Z,100.00
2023-03-28T00:26:54.824Z,100.00
2023-03-28T00:29:26.270Z,100.00
2023-03-28T00:31:58.779Z,100.00
2023-03-28T00:34:28.912Z,100.00
2023-03-28T00:36:58.624Z,100.00
2023-03-28T00:39:29.666Z,100.00
2023-03-28T00:41:59.315Z,100.00
2023-03-28T00:44:46.078Z,100.00
2023-03-28T00:47:28.518Z,100.00
2023-03-28T00:50:03.191Z,100.00
2023-03-28T00:52:39.257Z,100.00
2023-03-28T00:55:13.019Z,100.00
2023-03-28T00:57:43.321Z,100.00
2023-03-28T01:00:17.876Z,100.00
2023-03-28T01:02:53.461Z,100.00
2023-03-28T01:05:29.277Z,100.00
2023-03-28T01:08:02.842Z,100.00
2023-03-28T01:10:34.809Z,100.00
2023-03-28T01:13:05.806Z,100.00
2023-03-28T01:15:35.602Z,100.00
2023-03-28T01:18:11.757Z,100.00
2023-03-28T01:21:24.560Z,100.00
2023-03-28T01:24:33.900Z,100.00
2023-03-28T01:27:09.948Z,100.00
2023-03-28T01:30:15.578Z,100.00
2023-03-28T01:33:11.921Z,100.00
2023-03-28T01:36:09.921Z,100.00
2023-03-28T01:38:50.128Z,100.00
2023-03-28T01:41:26.006Z,100.00
2023-03-28T01:44:07.308Z,100.00
2023-03-28T01:46:41.753Z,100.00
2023-03-28T01:49:18.314Z,100.00
2023-03-28T01:51:55.502Z,100.00
2023-03-28T01:54:33.482Z,100.00
2023-03-28T01:57:10.683Z,100.00
2023-03-28T01:59:44.300Z,100.00
2023-03-28T02:02:20.790Z,100.00
2023-03-28T02:04:52.929Z,100.00
2023-03-28T02:07:29.054Z,100.00
2023-03-28T02:10:01.924Z,100.00
2023-03-28T02:12:38.148Z,100.00
2023-03-28T02:15:09.046Z,100.00
2023-03-28T02:17:45.619Z,100.00
2023-03-28T02:20:19.950Z,100.00
2023-03-28T02:22:54.179Z,100.00
2023-03-28T02:25:26.497Z,100.00
2023-03-28T02:28:01.431Z,100.00
2023-03-28T02:30:31.021Z,100.00
2023-03-28T02:33:04.078Z,100.00
2023-03-28T02:35:49.758Z,100.00
2023-03-28T02:38:29.851Z,100.00
2023-03-28T02:41:10.454Z,100.00
2023-03-28T02:43:59.047Z,100.00
2023-03-28T02:46:33.160Z,100.00
2023-03-28T02:49:25.677Z,100.00
2023-03-28T02:52:09.432Z,100.00
2023-03-28T02:54:44.763Z,100.00
2023-03-28T02:57:21.444Z,100.00
2023-03-28T02:59:56.841Z,100.00
2023-03-28T03:02:29.248Z,100.00
2023-03-28T03:05:01.998Z,100.00
2023-03-28T03:07:32.294Z,100.00
2023-03-28T03:10:01.932Z,100.00
2023-03-28T03:12:34.040Z,100.00
2023-03-28T03:15:04.229Z,100.00
2023-03-28T03:17:33.835Z,100.00
2023-03-28T03:20:07.036Z,100.00
2023-03-28T03:22:37.380Z,100.00
2023-03-28T03:25:08.394Z,100.00
2023-03-28T03:27:41.212Z,100.00
2023-03-28T03:30:12.111Z,100.00
2023-03-28T03:32:44.224Z,100.00
2023-03-28T03:35:14.272Z,100.00
2023-03-28T03:37:44.053Z,100.00
2023-03-28T03:40:14.206Z,100.00
2023-03-28T03:42:46.326Z,100.00
2023-03-28T03:45:15.981Z,100.00
2023-03-28T03:47:45.606Z,100.00
2023-03-28T03:50:15.407Z,100.00
2023-03-28T03:52:44.945Z,100.00
2023-03-28T03:55:14.680Z,100.00
2023-03-28T03:57:46.787Z,100.00
2023-03-28T04:00:17.404Z,100.00
2023-03-28T04:02:47.040Z,100.00
2023-03-28T04:05:17.068Z,100.00
2023-03-28T04:07:46.710Z,100.00
2023-03-28T04:10:16.266Z,100.00
2023-03-28T04:12:48.486Z,100.00
2023-03-28T04:15:18.254Z,100.00
2023-03-28T04:17:50.413Z,100.00
2023-03-28T04:20:21.168Z,100.00
2023-03-28T04:22:50.756Z,100.00
2023-03-28T04:25:20.575Z,100.00
2023-03-28T04:27:54.781Z,100.00
2023-03-28T04:30:26.003Z,100.00
2023-03-28T04:32:55.672Z,100.00
2023-03-28T04:35:26.416Z,100.00
2023-03-28T04:37:58.027Z,100.00
2023-03-28T04:40:28.337Z,100.00
2023-03-28T04:43:00.479Z,100.00
2023-03-28T04:45:30.225Z,100.00
2023-03-28T04:47:59.818Z,100.00
2023-03-28T04:50:29.373Z,100.00
2023-03-28T04:52:58.885Z,100.00
2023-03-28T04:55:28.791Z,100.00
2023-03-28T04:58:01.091Z,100.00
2023-03-28T05:00:30.779Z,100.00
2023-03-28T05:03:05.149Z,100.00
2023-03-28T05:05:35.496Z,100.00
2023-03-28T05:08:05.263Z,100.00
2023-03-28T05:10:34.838Z,100.00
2023-03-28T05:13:07.160Z,100.00
2023-03-28T05:15:36.765Z,100.00
2023-03-28T05:18:07.085Z,100.00
2023-03-28T05:20:36.881Z,100.00
2023-03-28T05:23:07.495Z,100.00
2023-03-28T05:25:37.360Z,100.00
2023-03-28T05:28:09.633Z,100.00
2023-03-28T05:30:39.180Z,100.00
2023-03-28T05:33:08.806Z,100.00
2023-03-28T05:35:39.378Z,100.00
2023-03-28T05:38:09.217Z,100.00
2023-03-28T05:40:39.807Z,100.00
2023-03-28T05:43:11.939Z,100.00
2023-03-28T05:45:42.005Z,100.00
2023-03-28T05:48:11.632Z,100.00
2023-03-28T05:50:41.280Z,100.00
2023-03-28T05:53:10.962Z,100.00
2023-03-28T05:55:40.623Z,100.00
2023-03-28T05:58:13.061Z,100.00
2023-03-28T06:00:42.896Z,100.00
2023-03-28T06:03:16.469Z,100.00
2023-03-28T06:05:47.430Z,100.00
2023-03-28T06:08:16.988Z,100.00
2023-03-28T06:10:46.775Z,100.00
2023-03-28T06:13:19.714Z,100.00
2023-03-28T06:15:49.290Z,100.00
2023-03-28T06:18:18.802Z,100.00
2023-03-28T06:20:48.459Z,100.00
2023-03-28T06:23:17.985Z,100.00
2023-03-28T06:25:47.809Z,99.15
2023-03-28T06:28:19.981Z,98.71
2023-03-28T06:30:51.797Z,98.64
2023-03-28T06:33:21.374Z,98.17
2023-03-28T06:35:51.681Z,98.15
2023-03-28T06:38:21.559Z,97.36
2023-03-28T06:40:51.131Z,96.73
2023-03-28T06:43:23.255Z,96.59
2023-03-28T06:45:52.831Z,96.65
2023-03-28T06:48:22.451Z,97.08
2023-03-28T06:50:52.825Z,96.67
2023-03-28T06:53:22.760Z,95.29
2023-03-28T06:55:52.689Z,94.72
2023-03-28T06:58:26.217Z,95.73
2023-03-28T07:00:56.332Z,95.11
2023-03-28T07:03:25.930Z,95.49
2023-03-28T07:05:55.690Z,95.76
2023-03-28T07:08:25.746Z,95.47
2023-03-28T07:10:55.305Z,93.52
2023-03-28T07:13:27.446Z,96.54
2023-03-28T07:16:04.148Z,92.43
2023-03-28T07:18:33.840Z,90.78
2023-03-28T07:21:09.586Z,89.92
2023-03-28T07:23:39.506Z,85.87
2023-03-28T07:26:10.046Z,82.24
2023-03-28T07:28:42.487Z,74.68
2023-03-28T07:31:12.454Z,68.92
2023-03-28T07:33:42.443Z,68.02
2023-03-28T07:36:14.785Z,65.07
2023-03-28T07:38:47.278Z,62.44
2023-03-28T07:41:18.313Z,63.58
2023-03-28T07:43:50.432Z,63.75
2023-03-28T07:46:21.189Z,63.20
2023-03-28T07:48:50.834Z,60.24
2023-03-28T07:51:20.702Z,59.08
2023-03-28T07:53:50.562Z,62.03
2023-03-28T07:56:20.173Z,65.89
2023-03-28T07:58:52.264Z,69.70
2023-03-28T08:01:23.027Z,72.97
2023-03-28T08:03:52.987Z,75.73
2023-03-28T08:06:32.180Z,78.30
2023-03-28T08:09:02.567Z,77.94
2023-03-28T08:11:32.108Z,73.47
2023-03-28T08:14:04.472Z,68.81
2023-03-28T08:16:34.676Z,67.93
2023-03-28T08:21:39.507Z,68.03
2023-03-28T08:24:12.906Z,70.62
2023-03-28T08:26:46.733Z,71.44
2023-03-28T08:29:20.842Z,71.60
2023-03-28T08:31:50.851Z,72.61
2023-03-28T08:34:20.537Z,71.35
2023-03-28T08:36:50.148Z,72.63
2023-03-28T08:39:19.672Z,72.77
2023-03-28T08:42:06.353Z,72.30
2023-03-28T08:44:53.742Z,71.15
2023-03-28T08:47:28.310Z,69.08
2023-03-28T08:50:05.558Z,67.40
2023-03-28T08:52:35.557Z,61.44
2023-03-28T08:55:09.080Z,54.92
2023-03-28T08:57:39.242Z,54.16
2023-03-28T09:00:19.592Z,51.13
2023-03-28T09:02:51.786Z,47.05
2023-03-28T09:05:35.017Z,47.73
2023-03-28T09:08:19.785Z,56.85
2023-03-28T09:10:56.053Z,66.52
2023-03-28T09:13:38.983Z,71.28
2023-03-28T09:16:39.945Z,76.34
2023-03-28T09:19:34.199Z,78.09
2023-03-28T09:22:21.951Z,69.71
2023-03-28T09:25:08.566Z,61.72
2023-03-28T09:27:38.711Z,60.60
2023-03-28T09:30:20.915Z,96.59
2023-03-28T09:32:58.480Z,100.00
2023-03-28T09:35:30.600Z,100.00
2023-03-28T09:38:05.434Z,100.00
2023-03-28T09:40:36.704Z,100.00
2023-03-28T09:43:18.241Z,100.00
2023-03-28T09:45:54.933Z,100.00
2023-03-28T09:48:31.170Z,100.00
2023-03-28T09:51:00.991Z,97.80
2023-03-28T09:53:33.308Z,90.62
2023-03-28T09:56:06.096Z,85.20
2023-03-28T09:58:54.082Z,80.59
2023-03-28T10:01:32.913Z,69.67
2023-03-28T10:04:05.203Z,70.91
2023-03-28T10:06:35.010Z,66.60
2023-03-28T10:09:21.072Z,61.45
2023-03-28T10:11:54.644Z,56.48
2023-03-28T10:14:35.870Z,50.58
2023-03-28T10:17:08.382Z,50.95
2023-03-28T10:19:44.804Z,51.15
2023-03-28T10:22:17.844Z,48.29
2023-03-28T10:24:48.894Z,45.00
2023-03-28T10:27:24.134Z,43.28
2023-03-28T10:29:55.074Z,44.11
2023-03-28T10:32:29.943Z,42.02
2023-03-28T10:35:10.116Z,40.46
2023-03-28T10:37:39.728Z,41.11
2023-03-28T10:40:26.436Z,42.72
2023-03-28T10:42:56.108Z,44.63
2023-03-28T10:45:33.313Z,48.08
2023-03-28T10:48:06.972Z,47.84
2023-03-28T10:50:44.936Z,46.38
2023-03-28T10:53:35.326Z,42.45
2023-03-28T10:56:14.658Z,42.34
2023-03-28T10:58:53.429Z,40.31
2023-03-28T11:01:25.116Z,42.01
2023-03-28T11:04:21.387Z,43.58
2023-03-28T11:07:01.948Z,46.64
2023-03-28T11:09:42.521Z,49.00
2023-03-28T11:12:28.582Z,51.07
2023-03-28T11:15:09.028Z,53.05
2023-03-28T11:17:48.886Z,54.19
2023-03-28T11:20:38.660Z,55.08
2023-03-28T11:23:43.516Z,55.59
2023-03-28T11:26:19.038Z,51.69
2023-03-28T11:29:08.997Z,51.40
2023-03-28T11:31:43.986Z,54.06
2023-03-28T11:34:22.966Z,57.31
2023-03-28T11:36:56.662Z,52.25
2023-03-28T11:39:38.935Z,50.09
2023-03-28T11:42:18.476Z,50.68
2023-03-28T11:45:03.614Z,59.51
2023-03-28T11:47:39.837Z,73.78
2023-03-28T11:50:15.361Z,80.00
2023-03-28T11:52:50.891Z,76.56
2023-03-28T11:55:23.833Z,73.32
2023-03-28T11:58:00.011Z,74.36
2023-03-28T12:00:34.613Z,74.44
2023-03-28T12:03:17.194Z,75.56
2023-03-28T12:05:57.796Z,74.58
2023-03-28T12:08:37.630Z,70.95
2023-03-28T12:11:10.821Z,70.21
2023-03-28T12:13:55.443Z,68.61
2023-03-28T12:16:40.709Z,64.78
2023-03-28T12:19:17.785Z,64.39
2023-03-28T12:21:52.743Z,67.54
2023-03-28T12:24:30.063Z,68.67
2023-03-28T12:27:09.491Z,73.15
2023-03-28T12:29:47.398Z,90.10
2023-03-28T12:32:39.354Z,92.88
2023-03-28T12:35:18.119Z,92.19
2023-03-28T12:38:05.509Z,91.50
2023-03-28T12:40:52.276Z,89.26
2023-03-28T12:43:26.198Z,87.10
2023-03-28T12:46:02.901Z,85.59
2023-03-28T12:48:39.705Z,82.80
2023-03-28T12:51:16.565Z,82.10
2023-03-28T12:53:49.039Z,77.92
2023-03-28T12:56:19.179Z,74.19
2023-03-28T12:58:49.581Z,72.29
2023-03-28T13:01:35.914Z,68.30
2023-03-28T13:04:16.764Z,64.94
2023-03-28T13:06:53.260Z,64.04
2023-03-28T13:09:35.598Z,62.56
2023-03-28T13:12:13.201Z,60.21
2023-03-28T13:14:44.301Z,55.52
2023-03-28T13:17:24.522Z,56.11
2023-03-28T13:19:56.048Z,77.35
2023-03-28T13:22:35.024Z,94.30
2023-03-28T13:25:27.500Z,100.00
2023-03-28T13:28:00.834Z,100.00
2023-03-28T13:30:32.442Z,100.00
2023-03-28T13:33:19.357Z,100.00
2023-03-28T13:35:50.536Z,97.57
2023-03-28T13:38:35.134Z,92.94
2023-03-28T13:41:07.087Z,89.52
2023-03-28T13:43:44.992Z,88.13
2023-03-28T13:46:16.822Z,87.30
2023-03-28T13:48:55.103Z,85.83
2023-03-28T13:51:27.573Z,83.88
2023-03-28T13:53:57.208Z,79.81
2023-03-28T13:56:28.681Z,79.54
2023-03-28T13:59:01.465Z,77.57
2023-03-28T14:01:38.100Z,78.13
2023-03-28T14:04:19.058Z,76.87
2023-03-28T14:06:48.778Z,76.05
2023-03-28T14:09:22.889Z,74.55
2023-03-28T14:11:53.259Z,72.96
2023-03-28T14:14:31.546Z,72.10
2023-03-28T14:17:04.130Z,72.34
2023-03-28T14:19:43.177Z,73.12
2023-03-28T14:22:18.011Z,71.37
2023-03-28T14:24:49.841Z,71.62
2023-03-28T14:27:31.889Z,70.17
2023-03-28T14:30:02.554Z,66.72
2023-03-28T14:32:36.304Z,59.47
2023-03-28T14:35:24.716Z,53.45
2023-03-28T14:37:56.132Z,51.54
2023-03-28T14:40:35.700Z,51.02
2023-03-28T14:43:10.227Z,49.35
2023-03-28T14:45:42.735Z,49.42
2023-03-28T14:48:19.248Z,48.87
2023-03-28T14:50:53.534Z,47.87
2023-03-28T14:53:25.062Z,46.17
2023-03-28T14:55:56.785Z,44.09
2023-03-28T14:58:28.583Z,43.99
2023-03-28T15:01:02.254Z,44.56
2023-03-28T15:03:39.172Z,44.08
2023-03-28T15:06:18.284Z,43.83
2023-03-28T15:08:48.413Z,43.71
2023-03-28T15:11:22.468Z,44.16
2023-03-28T15:13:53.776Z,43.12
2023-03-28T15:16:26.967Z,41.47
2023-03-28T15:19:07.082Z,41.58
2023-03-28T15:21:41.370Z,41.48
2023-03-28T15:24:14.561Z,41.12
2023-03-28T15:26:47.058Z,40.56
2023-03-28T15:29:20.321Z,41.00
2023-03-28T15:31:50.678Z,40.98
2023-03-28T15:34:26.972Z,41.93
2023-03-28T15:37:01.566Z,41.89
2023-03-28T15:39:33.152Z,41.37
2023-03-28T15:42:04.154Z,42.26
2023-03-28T15:44:36.068Z,41.71
2023-03-28T15:47:08.325Z,42.02
2023-03-28T15:49:39.752Z,41.30
2023-03-28T15:52:22.378Z,41.87
2023-03-28T15:54:54.605Z,42.10
2023-03-28T15:57:25.811Z,42.81
2023-03-28T15:59:56.387Z,43.00
2023-03-28T16:02:37.524Z,43.10
2023-03-28T16:05:09.192Z,43.05
2023-03-28T16:07:51.621Z,42.63
2023-03-28T16:10:23.048Z,43.02
2023-03-28T16:12:53.343Z,42.75
2023-03-28T16:15:24.038Z,43.30
2023-03-28T16:17:55.736Z,43.32
2023-03-28T16:20:26.431Z,42.94
2023-03-28T16:22:58.562Z,43.40
2023-03-28T16:25:28.622Z,43.16
2023-03-28T16:27:58.529Z,42.70
2023-03-28T16:30:31.012Z,42.69
2023-03-28T16:33:01.224Z,43.39
2023-03-28T16:35:31.351Z,42.80
2023-03-28T16:38:03.939Z,43.42
2023-03-28T16:40:33.944Z,42.96
2023-03-28T16:43:03.556Z,42.71
2023-03-28T16:45:33.582Z,42.74
2023-03-28T16:48:03.196Z,43.14
2023-03-28T16:50:32.803Z,42.91
2023-03-28T16:53:06.729Z,44.09
2023-03-28T16:55:36.538Z,43.92
2023-03-28T16:58:06.773Z,44.37
2023-03-28T17:00:36.462Z,45.02
2023-03-28T17:03:06.148Z,45.57
2023-03-28T17:05:38.404Z,45.41
2023-03-28T17:08:10.743Z,46.18
2023-03-28T17:10:42.980Z,46.16
2023-03-28T17:13:12.682Z,47.33
2023-03-28T17:15:42.579Z,47.76
2023-03-28T17:18:12.360Z,47.61
2023-03-28T17:20:41.911Z,48.47
2023-03-28T17:23:14.087Z,49.16
2023-03-28T17:25:53.913Z,49.91
2023-03-28T17:28:24.506Z,50.90
2023-03-28T17:30:54.202Z,51.22
2023-03-28T17:33:24.719Z,51.41
2023-03-28T17:35:54.489Z,51.93
2023-03-28T17:38:26.687Z,52.55
2023-03-28T17:40:56.224Z,53.31
2023-03-28T17:43:25.808Z,53.94
2023-03-28T17:45:56.686Z,54.48
2023-03-28T17:48:26.225Z,54.80
2023-03-28T17:50:56.226Z,55.20
2023-03-28T17:53:28.420Z,55.51
2023-03-28T17:55:59.137Z,55.62
2023-03-28T17:58:28.838Z,56.57
2023-03-28T18:00:59.010Z,57.00
2023-03-28T18:03:28.836Z,57.26
2023-03-28T18:06:00.682Z,57.55
2023-03-28T18:08:33.440Z,58.50
2023-03-28T18:11:03.679Z,59.02
2023-03-28T18:13:33.214Z,59.51
2023-03-28T18:16:04.540Z,60.05
2023-03-28T18:18:34.701Z,60.16
2023-03-28T18:21:04.487Z,60.08
2023-03-28T18:23:37.021Z,60.17
2023-03-28T18:26:06.912Z,60.85
2023-03-28T18:28:36.956Z,61.13
2023-03-28T18:31:11.066Z,61.25
2023-03-28T18:33:41.343Z,61.00
2023-03-28T18:36:12.312Z,61.28
2023-03-28T18:38:46.730Z,60.95
2023-03-28T18:41:16.693Z,60.27
2023-03-28T18:43:46.361Z,60.49
2023-03-28T18:46:16.351Z,60.95
2023-03-28T18:48:46.706Z,61.53
2023-03-28T18:51:16.328Z,61.86
2023-03-28T18:53:48.486Z,62.11
2023-03-28T18:56:18.630Z,62.57
2023-03-28T18:58:50.467Z,62.92
2023-03-28T19:01:20.746Z,63.65
2023-03-28T19:03:50.690Z,64.05
2023-03-28T19:06:20.416Z,63.83
2023-03-28T19:08:54.058Z,63.68
2023-03-28T19:11:23.699Z,63.91
2023-03-28T19:13:53.258Z,63.73
2023-03-28T19:16:22.898Z,62.98
2023-03-28T19:18:52.502Z,62.53
2023-03-28T19:21:22.156Z,62.33
2023-03-28T19:23:54.311Z,62.59
2023-03-28T19:26:24.098Z,63.17
2023-03-28T19:28:53.754Z,63.28
2023-03-28T19:31:24.855Z,63.58
2023-03-28T19:33:54.498Z,64.20
2023-03-28T19:36:24.131Z,64.83
2023-03-28T19:38:56.362Z,65.65
2023-03-28T19:41:27.594Z,66.66
2023-03-28T19:43:57.931Z,67.40
2023-03-28T19:46:33.102Z,67.88
2023-03-28T19:49:07.140Z,68.21
2023-03-28T19:51:37.179Z,68.65
2023-03-28T19:54:09.390Z,69.03
2023-03-28T19:56:39.049Z,69.20
2023-03-28T19:59:08.693Z,66.54
2023-03-28T20:01:38.389Z,65.71
2023-03-28T20:04:08.568Z,65.33
2023-03-28T20:06:38.187Z,65.04
2023-03-28T20:09:10.429Z,65.05
2023-03-28T20:11:42.221Z,65.31
2023-03-28T20:14:17.179Z,66.40
2023-03-28T20:16:46.728Z,66.47
2023-03-28T20:19:18.268Z,66.00
2023-03-28T20:21:49.381Z,65.80
2023-03-28T20:24:21.508Z,66.17
2023-03-28T20:26:51.552Z,66.73
2023-03-28T20:29:21.815Z,67.01
2023-03-28T20:31:51.589Z,66.83
2023-03-28T20:34:21.280Z,67.05
2023-03-28T20:36:50.814Z,68.35
2023-03-28T20:39:26.336Z,66.75
2023-03-28T20:41:56.053Z,66.88
2023-03-28T20:44:30.028Z,66.82
2023-03-28T20:47:00.234Z,66.94
2023-03-28T20:49:29.827Z,67.12
2023-03-28T20:51:59.402Z,67.75
2023-03-28T20:54:31.750Z,69.45
2023-03-28T20:57:01.629Z,70.16
2023-03-28T20:59:32.276Z,69.94
2023-03-28T21:02:02.294Z,70.06
2023-03-28T21:04:32.245Z,70.24
2023-03-28T21:07:02.555Z,70.96
2023-03-28T21:09:34.642Z,71.92
2023-03-28T21:12:04.148Z,73.02
2023-03-28T21:14:33.657Z,74.39
2023-03-28T21:17:07.473Z,74.94
2023-03-28T21:19:37.412Z,75.44
2023-03-28T21:22:07.205Z,76.74
2023-03-28T21:24:39.338Z,76.89
2023-03-28T21:27:08.919Z,76.43
2023-03-28T21:29:39.067Z,76.14
2023-03-28T21:32:08.923Z,76.95
2023-03-28T21:34:39.196Z,76.83
2023-03-28T21:37:08.840Z,78.30
2023-03-28T21:39:41.101Z,79.09
2023-03-28T21:42:10.643Z,79.00
2023-03-28T21:44:40.226Z,77.88
2023-03-28T21:47:10.505Z,78.38
2023-03-28T21:49:40.266Z,79.54
2023-03-28T21:52:09.795Z,81.35
2023-03-28T21:54:41.995Z,82.68
2023-03-28T21:57:11.562Z,82.92
2023-03-28T21:59:41.463Z,82.54
2023-03-28T22:02:11.237Z,83.83
2023-03-28T22:04:41.213Z,85.15
2023-03-28T22:07:10.939Z,85.06
2023-03-28T22:09:44.715Z,84.11
2023-03-28T22:12:14.999Z,84.00
2023-03-28T22:14:44.609Z,84.24
2023-03-28T22:17:14.121Z,83.58
2023-03-28T22:19:43.947Z,83.70
2023-03-28T22:22:13.806Z,83.97
2023-03-28T22:24:46.273Z,84.51
2023-03-28T22:27:16.580Z,85.06
2023-03-28T22:29:46.122Z,85.59
2023-03-28T22:32:15.722Z,86.71
2023-03-28T22:34:45.272Z,88.30
2023-03-28T22:37:15.490Z,89.45
2023-03-28T22:39:47.828Z,90.65
2023-03-28T22:42:17.692Z,91.80
2023-03-28T22:44:48.341Z,93.26
2023-03-28T22:47:18.190Z,94.03
2023-03-28T22:49:48.410Z,94.37
2023-03-28T22:52:19.587Z,96.10
2023-03-28T22:54:52.975Z,97.26
2023-03-28T22:57:22.550Z,97.98
2023-03-28T22:59:53.321Z,98.19
2023-03-28T23:02:22.913Z,98.95
2023-03-28T23:04:54.332Z,99.86
2023-03-28T23:07:24.339Z,100.00
2023-03-28T23:09:56.964Z,100.00
2023-03-28T23:12:26.505Z,100.00
2023-03-28T23:14:56.651Z,100.00
2023-03-28T23:17:26.581Z,100.00
2023-03-28T23:19:56.202Z,100.00
2023-03-28T23:22:25.858Z,100.00
2023-03-28T23:24:57.982Z,100.00
2023-03-28T23:27:27.675Z,100.00
2023-03-28T23:29:57.247Z,100.00
2023-03-28T23:32:26.777Z,100.00
2023-03-28T23:34:56.822Z,100.00
2023-03-28T23:37:27.723Z,100.00
2023-03-28T23:40:00.331Z,100.00
2023-03-28T23:42:29.835Z,100.00
2023-03-28T23:44:59.454Z,100.00
2023-03-28T23:47:29.061Z,100.00
2023-03-28T23:49:58.666Z,100.00
2023-03-28T23:52:28.219Z,100.00
2023-03-28T23:55:00.317Z,100.00
2023-03-28T23:57:30.259Z,100.00
2023-03-28T23:59:59.931Z,100.00
